createdAt,value
2017-07-22T00:01:18.958Z,18.30
2017-07-22T00:03:48.640Z,18.10
2017-07-22T00:06:18.271Z,18.30
2017-07-22T00:08:47.046Z,17.50
2017-07-22T00:11:15.773Z,17.40
2017-07-22T00:13:44.654Z,18.40
2017-07-22T00:16:13.927Z,18.00
2017-07-22T00:18:42.614Z,16.80
2017-07-22T00:21:11.718Z,16.60
2017-07-22T00:23:41.092Z,17.00
2017-07-22T00:26:10.428Z,16.60
2017-07-22T00:28:39.414Z,16.30
2017-07-22T00:31:08.785Z,15.40
2017-07-22T00:33:38.004Z,16.70
2017-07-22T00:36:07.654Z,16.80
2017-07-22T00:38:37.034Z,17.20
2017-07-22T00:41:06.420Z,16.30
2017-07-22T00:43:35.557Z,17.40
2017-07-22T00:46:04.911Z,18.00
2017-07-22T00:48:34.097Z,17.50
2017-07-22T00:51:03.347Z,17.40
2017-07-22T00:53:32.493Z,18.00
2017-07-22T00:56:01.719Z,18.00
2017-07-22T00:58:30.924Z,17.50
2017-07-22T01:00:59.825Z,17.40
2017-07-22T01:03:29.177Z,17.80
2017-07-22T01:05:58.550Z,17.80
2017-07-22T01:08:31.143Z,19.30
2017-07-22T01:11:00.381Z,18.10
2017-07-22T01:13:29.589Z,18.20
2017-07-22T01:16:03.225Z,18.60
2017-07-22T01:18:32.479Z,18.30
2017-07-22T01:21:01.973Z,18.70
2017-07-22T01:23:31.430Z,19.30
2017-07-22T01:26:00.760Z,19.10
2017-07-22T01:28:30.030Z,18.60
2017-07-22T01:30:59.769Z,19.80
2017-07-22T01:33:28.835Z,19.40
2017-07-22T01:35:58.947Z,19.50
2017-07-22T01:38:28.069Z,19.60
2017-07-22T01:40:57.333Z,20.80
2017-07-22T01:43:26.695Z,21.20
2017-07-22T01:45:55.986Z,21.60
2017-07-22T01:48:25.532Z,22.40
2017-07-22T01:50:54.843Z,22.10
2017-07-22T01:53:23.624Z,22.50
2017-07-22T01:56:05.135Z,23.50
2017-07-22T01:58:34.083Z,23.10
2017-07-22T02:01:04.312Z,23.70
2017-07-22T02:06:08.988Z,23.80
2017-07-22T02:08:38.192Z,23.10
2017-07-22T02:11:07.641Z,23.00
2017-07-22T02:13:37.077Z,23.10
2017-07-22T02:16:06.165Z,23.30
2017-07-22T02:18:35.345Z,23.10
2017-07-22T02:21:05.340Z,23.60
2017-07-22T02:23:34.515Z,23.50
2017-07-22T02:26:03.811Z,23.80
2017-07-22T02:28:33.086Z,23.80
2017-07-22T02:31:04.286Z,24.40
2017-07-22T02:33:33.662Z,24.20
2017-07-22T02:36:02.957Z,24.70
2017-07-22T02:38:32.201Z,24.70
2017-07-22T02:41:02.390Z,25.30
2017-07-22T02:43:31.778Z,25.30
2017-07-22T02:46:01.030Z,25.50
2017-07-22T02:48:30.358Z,25.80
2017-07-22T02:50:59.482Z,25.70
2017-07-22T02:53:28.728Z,26.90
2017-07-22T02:56:00.887Z,27.00
2017-07-22T02:58:30.137Z,27.20
2017-07-22T03:00:59.447Z,27.30
2017-07-22T03:03:28.894Z,28.10
2017-07-22T03:05:58.941Z,27.60
2017-07-22T03:08:29.796Z,27.60
2017-07-22T03:10:59.114Z,27.50
2017-07-22T03:13:28.585Z,27.90
2017-07-22T03:15:57.929Z,28.30
2017-07-22T03:18:27.233Z,28.90
2017-07-22T03:20:56.551Z,29.10
2017-07-22T03:23:25.950Z,29.60
2017-07-22T03:25:55.214Z,30.30
2017-07-22T03:28:24.542Z,30.70
2017-07-22T03:30:53.970Z,31.60
2017-07-22T03:33:23.963Z,31.30
2017-07-22T03:35:53.195Z,31.30
2017-07-22T03:38:22.481Z,31.00
2017-07-22T03:40:52.762Z,32.70
2017-07-22T03:43:21.917Z,32.30
2017-07-22T03:45:51.290Z,32.50
2017-07-22T03:48:20.766Z,32.70
2017-07-22T03:50:50.243Z,33.80
2017-07-22T03:53:19.333Z,34.40
2017-07-22T03:55:48.589Z,35.90
2017-07-22T03:58:17.852Z,35.70
2017-07-22T04:00:47.003Z,36.30
2017-07-22T04:03:16.274Z,37.00
2017-07-22T04:05:45.468Z,37.60
2017-07-22T04:08:14.793Z,37.60
2017-07-22T04:10:45.324Z,38.60
2017-07-22T04:13:14.488Z,38.70
2017-07-22T04:15:43.844Z,40.20
2017-07-22T04:18:14.016Z,40.10
2017-07-22T04:20:44.605Z,40.00
2017-07-22T04:23:13.687Z,41.50
2017-07-22T04:25:43.033Z,41.50
2017-07-22T04:28:12.342Z,42.20
2017-07-22T04:30:41.718Z,42.60
2017-07-22T04:33:10.986Z,43.40
2017-07-22T04:35:40.560Z,43.40
2017-07-22T04:38:10.038Z,44.40
2017-07-22T04:40:39.072Z,43.80
2017-07-22T04:43:08.411Z,43.80
2017-07-22T04:45:38.049Z,44.20
2017-07-22T04:48:07.361Z,44.40
2017-07-22T04:50:37.024Z,44.60
2017-07-22T04:53:06.668Z,45.10
2017-07-22T04:55:43.447Z,44.70
2017-07-22T04:58:12.769Z,45.60
2017-07-22T05:00:42.026Z,45.80
2017-07-22T05:03:11.583Z,45.80
2017-07-22T05:05:40.928Z,46.50
2017-07-22T05:08:10.265Z,46.10
2017-07-22T05:10:39.461Z,46.80
2017-07-22T05:13:10.014Z,46.60
2017-07-22T05:15:39.245Z,46.80
2017-07-22T05:18:08.405Z,47.20
2017-07-22T05:20:37.666Z,46.90
2017-07-22T05:23:06.996Z,47.50
2017-07-22T05:25:36.124Z,47.90
2017-07-22T05:28:05.430Z,47.50
2017-07-22T05:30:35.070Z,47.80
2017-07-22T05:33:04.285Z,47.70
2017-07-22T05:35:33.809Z,48.00
2017-07-22T05:38:03.009Z,48.00
2017-07-22T05:40:33.010Z,47.90
2017-07-22T05:43:02.431Z,48.30
2017-07-22T05:45:31.751Z,48.30
2017-07-22T05:48:01.138Z,48.40
2017-07-22T05:50:30.505Z,48.90
2017-07-22T05:52:59.688Z,49.10
2017-07-22T05:55:28.485Z,48.90
2017-07-22T05:57:57.713Z,49.50
2017-07-22T06:00:27.072Z,50.40
2017-07-22T06:02:56.277Z,51.30
2017-07-22T06:05:25.397Z,51.00
2017-07-22T06:07:54.621Z,51.50
2017-07-22T06:10:23.765Z,51.70
2017-07-22T06:12:53.100Z,52.30
2017-07-22T06:15:23.116Z,52.80
2017-07-22T06:17:52.343Z,52.50
2017-07-22T06:20:21.706Z,52.40
2017-07-22T06:22:51.223Z,52.90
2017-07-22T06:25:20.508Z,52.20
2017-07-22T06:27:49.867Z,53.20
2017-07-22T06:30:19.693Z,52.90
2017-07-22T06:32:48.628Z,53.00
2017-07-22T06:35:17.900Z,53.10
2017-07-22T06:37:47.359Z,53.10
2017-07-22T06:40:16.638Z,53.20
2017-07-22T06:42:46.033Z,53.70
2017-07-22T06:45:15.191Z,54.40
2017-07-22T06:47:44.459Z,54.10
2017-07-22T06:50:13.666Z,54.80
2017-07-22T06:52:43.649Z,55.50
2017-07-22T06:55:12.932Z,54.20
2017-07-22T06:57:42.219Z,54.30
2017-07-22T07:00:11.670Z,54.10
2017-07-22T07:02:41.022Z,54.00
2017-07-22T07:05:12.263Z,54.00
2017-07-22T07:07:41.583Z,54.40
2017-07-22T07:10:13.098Z,54.10
2017-07-22T07:12:42.294Z,54.30
2017-07-22T07:15:22.102Z,54.10
2017-07-22T07:17:52.807Z,54.10
2017-07-22T07:20:25.296Z,54.20
2017-07-22T07:22:54.524Z,54.80
2017-07-22T07:25:23.870Z,55.10
2017-07-22T07:27:53.115Z,55.30
2017-07-22T07:30:22.201Z,55.10
2017-07-22T07:32:51.423Z,55.10
2017-07-22T07:35:20.592Z,55.70
2017-07-22T07:37:49.985Z,55.10
2017-07-22T07:40:19.518Z,56.10
2017-07-22T07:42:48.626Z,55.10
2017-07-22T07:45:17.516Z,55.50
2017-07-22T07:47:46.801Z,55.70
2017-07-22T07:50:15.794Z,55.40
2017-07-22T07:52:45.117Z,55.20
2017-07-22T07:55:14.537Z,55.60
2017-07-22T07:57:44.602Z,56.20
2017-07-22T08:00:14.347Z,56.10
2017-07-22T08:02:45.035Z,57.40
2017-07-22T08:05:14.364Z,57.00
2017-07-22T08:07:43.674Z,57.50
2017-07-22T08:10:12.963Z,58.20
2017-07-22T08:12:42.491Z,58.60
2017-07-22T08:15:11.699Z,58.90
2017-07-22T08:17:41.789Z,60.30
2017-07-22T08:20:11.841Z,59.80
2017-07-22T08:22:41.981Z,60.00
2017-07-22T08:25:11.319Z,60.00
2017-07-22T08:27:40.621Z,60.80
2017-07-22T08:30:09.972Z,60.70
2017-07-22T08:32:40.051Z,62.70
2017-07-22T08:35:16.605Z,62.70
2017-07-22T08:37:45.946Z,63.30
2017-07-22T08:40:14.995Z,63.40
2017-07-22T08:42:44.460Z,63.10
2017-07-22T08:45:14.611Z,64.80
2017-07-22T08:47:43.834Z,64.60
2017-07-22T08:50:13.179Z,64.10
2017-07-22T08:52:42.516Z,64.10
2017-07-22T08:55:11.949Z,63.50
2017-07-22T08:57:41.164Z,63.90
2017-07-22T09:00:10.646Z,64.30
2017-07-22T09:02:39.915Z,64.60
2017-07-22T09:05:09.267Z,64.30
2017-07-22T09:07:38.964Z,64.20
2017-07-22T09:10:08.053Z,64.40
2017-07-22T09:12:38.276Z,64.00
2017-07-22T09:15:07.513Z,63.90
2017-07-22T09:17:37.392Z,64.90
2017-07-22T09:20:06.669Z,64.80
2017-07-22T09:22:36.914Z,65.00
2017-07-22T09:25:06.190Z,65.90
2017-07-22T09:27:35.770Z,66.30
2017-07-22T09:30:05.351Z,64.50
2017-07-22T09:32:34.545Z,65.10
2017-07-22T09:35:04.286Z,64.00
2017-07-22T09:37:33.839Z,63.70
2017-07-22T09:40:03.185Z,63.70
2017-07-22T09:42:32.522Z,63.80
2017-07-22T09:45:02.467Z,63.50
2017-07-22T09:47:31.929Z,63.00
2017-07-22T09:50:01.232Z,63.60
2017-07-22T09:52:30.634Z,63.90
2017-07-22T09:54:59.881Z,63.80
2017-07-22T09:57:29.396Z,64.10
2017-07-22T09:59:58.461Z,64.30
2017-07-22T10:02:27.924Z,63.70
2017-07-22T10:04:57.988Z,63.90
2017-07-22T10:07:27.100Z,63.90
2017-07-22T10:09:56.430Z,64.40
2017-07-22T10:12:26.708Z,65.10
2017-07-22T10:14:55.935Z,64.50
2017-07-22T10:17:26.027Z,65.20
2017-07-22T10:19:55.479Z,65.00
2017-07-22T10:22:25.874Z,66.60
2017-07-22T10:24:58.018Z,66.00
2017-07-22T10:27:27.305Z,66.40
2017-07-22T10:29:57.730Z,67.20
2017-07-22T10:32:27.700Z,67.70
2017-07-22T10:34:57.022Z,68.60
2017-07-22T10:37:26.399Z,68.10
2017-07-22T10:39:55.620Z,68.20
2017-07-22T10:42:24.876Z,67.80
2017-07-22T10:44:54.237Z,67.40
2017-07-22T10:47:23.670Z,66.80
2017-07-22T10:49:52.952Z,67.30
2017-07-22T10:52:22.076Z,67.40
2017-07-22T10:54:51.799Z,67.70
2017-07-22T10:57:21.061Z,68.20
2017-07-22T10:59:50.527Z,68.00
2017-07-22T11:02:19.700Z,68.20
2017-07-22T11:04:48.949Z,68.50
2017-07-22T11:07:18.189Z,68.10
2017-07-22T11:09:47.364Z,68.40
2017-07-22T11:12:16.427Z,68.20
2017-07-22T11:14:45.609Z,68.80
2017-07-22T11:17:15.030Z,68.20
2017-07-22T11:19:44.438Z,69.00
2017-07-22T11:22:13.789Z,69.70
2017-07-22T11:24:43.187Z,70.60
2017-07-22T11:27:13.619Z,70.60
2017-07-22T11:29:42.924Z,70.60
2017-07-22T11:32:12.365Z,70.50
2017-07-22T11:34:41.628Z,70.90
2017-07-22T11:37:10.586Z,70.90
2017-07-22T11:39:39.694Z,71.70
2017-07-22T11:42:09.614Z,72.00
2017-07-22T11:44:39.247Z,71.80
2017-07-22T11:47:08.526Z,72.70
2017-07-22T11:49:38.052Z,72.70
2017-07-22T11:52:07.556Z,73.30
2017-07-22T11:54:36.943Z,73.90
2017-07-22T11:57:06.100Z,74.80
2017-07-22T11:59:35.236Z,75.30
2017-07-22T12:02:04.427Z,75.50
2017-07-22T12:04:34.214Z,75.60
2017-07-22T12:07:03.389Z,76.00
2017-07-22T12:09:33.030Z,75.90
2017-07-22T12:12:02.282Z,76.70
2017-07-22T12:14:31.697Z,76.30
2017-07-22T12:17:00.923Z,76.30
2017-07-22T12:19:30.173Z,76.10
2017-07-22T12:21:59.561Z,76.40
2017-07-22T12:24:28.712Z,76.00
2017-07-22T12:26:58.015Z,75.80
2017-07-22T12:29:27.877Z,76.10
2017-07-22T12:31:57.176Z,75.20
2017-07-22T12:34:26.168Z,75.50
2017-07-22T12:36:55.498Z,75.80
2017-07-22T12:39:24.791Z,75.60
2017-07-22T12:41:54.551Z,75.50
2017-07-22T12:44:23.686Z,75.20
2017-07-22T12:46:53.407Z,75.00
2017-07-22T12:49:22.555Z,75.90
2017-07-22T12:51:52.015Z,77.60
2017-07-22T12:54:22.176Z,77.40
2017-07-22T12:56:51.447Z,77.70
2017-07-22T12:59:20.774Z,77.30
2017-07-22T13:01:50.020Z,77.20
2017-07-22T13:04:19.291Z,76.80
2017-07-22T13:06:48.497Z,77.20
2017-07-22T13:09:17.691Z,77.40
2017-07-22T13:11:47.125Z,78.50
2017-07-22T13:14:16.623Z,79.00
2017-07-22T13:16:46.382Z,79.80
2017-07-22T13:19:16.010Z,80.00
2017-07-22T13:21:45.319Z,79.30
2017-07-22T13:24:14.980Z,78.90
2017-07-22T13:26:44.490Z,78.90
2017-07-22T13:29:13.711Z,78.40
2017-07-22T13:31:43.954Z,77.30
2017-07-22T13:34:13.236Z,77.30
2017-07-22T13:36:42.364Z,76.90
2017-07-22T13:39:11.775Z,76.70
2017-07-22T13:41:41.092Z,76.20
2017-07-22T13:44:10.553Z,75.70
2017-07-22T13:46:40.061Z,75.40
2017-07-22T13:49:09.355Z,74.50
2017-07-22T13:51:38.459Z,74.10
2017-07-22T13:54:07.594Z,73.90
2017-07-22T13:56:36.903Z,73.20
2017-07-22T13:59:06.450Z,73.30
2017-07-22T14:01:35.872Z,73.10
2017-07-22T14:04:04.984Z,73.10
2017-07-22T14:06:34.275Z,72.70
2017-07-22T14:09:03.516Z,71.20
2017-07-22T14:11:32.825Z,70.40
2017-07-22T14:14:02.219Z,69.40
2017-07-22T14:16:31.633Z,68.00
2017-07-22T14:19:01.516Z,67.70
2017-07-22T14:21:30.862Z,67.70
2017-07-22T14:24:00.281Z,68.10
2017-07-22T14:26:29.456Z,68.30
2017-07-22T14:28:59.694Z,66.70
2017-07-22T14:31:28.843Z,66.70
2017-07-22T14:33:59.620Z,66.60
2017-07-22T14:36:29.065Z,65.50
2017-07-22T14:38:58.300Z,65.70
2017-07-22T14:41:27.697Z,63.90
2017-07-22T14:43:57.783Z,62.70
2017-07-22T14:46:26.949Z,62.70
2017-07-22T14:48:56.385Z,64.00
2017-07-22T14:51:25.553Z,62.20
2017-07-22T14:53:54.825Z,63.70
2017-07-22T14:56:25.147Z,63.20
2017-07-22T14:58:54.518Z,63.10
2017-07-22T15:01:23.722Z,64.20
2017-07-22T15:03:53.136Z,63.30
2017-07-22T15:06:22.530Z,62.30
2017-07-22T15:08:51.709Z,62.40
2017-07-22T15:11:21.079Z,61.10
2017-07-22T15:13:50.319Z,58.50
2017-07-22T15:16:19.441Z,56.00
2017-07-22T15:18:48.707Z,52.00
2017-07-22T15:21:17.967Z,52.60
2017-07-22T15:23:47.382Z,49.80
2017-07-22T15:26:16.652Z,49.10
2017-07-22T15:28:46.716Z,42.30
2017-07-22T15:31:15.936Z,42.00
2017-07-22T15:33:45.111Z,34.40
2017-07-22T15:36:15.332Z,33.10
2017-07-22T15:38:44.724Z,28.20
2017-07-22T15:41:13.912Z,24.70
2017-07-22T15:43:43.343Z,20.60
2017-07-22T15:46:12.620Z,18.00
2017-07-22T15:48:41.830Z,16.90
2017-07-22T15:51:11.148Z,14.70
2017-07-22T15:53:40.568Z,13.90
2017-07-22T15:56:09.842Z,12.50
2017-07-22T15:58:39.176Z,12.50
2017-07-22T16:01:08.829Z,11.00
2017-07-22T16:03:38.089Z,12.00
2017-07-22T16:06:07.714Z,10.40
2017-07-22T16:08:37.723Z,11.20
2017-07-22T16:11:07.900Z,14.30
2017-07-22T16:13:37.396Z,14.30
2017-07-22T16:16:06.730Z,12.60
2017-07-22T16:18:35.778Z,13.10
2017-07-22T16:21:05.392Z,11.30
2017-07-22T16:23:34.701Z,10.50
2017-07-22T16:26:04.612Z,10.00
2017-07-22T16:28:33.842Z,9.90
2017-07-22T16:31:03.642Z,9.00
2017-07-22T16:33:33.029Z,10.50
2017-07-22T16:36:02.168Z,11.00
2017-07-22T16:38:32.552Z,9.40
2017-07-22T16:41:01.738Z,10.20
2017-07-22T16:43:31.130Z,10.20
2017-07-22T16:46:00.336Z,10.30
2017-07-22T16:48:29.634Z,10.80
2017-07-22T16:50:58.772Z,9.20
2017-07-22T16:53:28.031Z,10.30
2017-07-22T16:55:57.343Z,10.30
2017-07-22T16:58:26.665Z,10.10
2017-07-22T17:00:56.035Z,10.70
2017-07-22T17:03:25.356Z,11.40
2017-07-22T17:05:54.604Z,8.30
2017-07-22T17:08:23.687Z,7.80
2017-07-22T17:10:53.185Z,8.40
2017-07-22T17:13:22.203Z,9.00
2017-07-22T17:15:51.491Z,9.60
2017-07-22T17:18:20.612Z,8.90
2017-07-22T17:20:50.743Z,8.90
2017-07-22T17:23:19.798Z,8.70
2017-07-22T17:25:49.148Z,7.90
2017-07-22T17:28:18.335Z,5.70
2017-07-22T17:30:47.578Z,7.00
2017-07-22T17:33:16.775Z,7.60
2017-07-22T17:35:46.197Z,6.50
2017-07-22T17:38:15.475Z,5.80
2017-07-22T17:40:45.746Z,6.50
2017-07-22T17:43:16.366Z,6.00
2017-07-22T17:45:45.716Z,7.50
2017-07-22T17:48:15.097Z,7.60
2017-07-22T17:50:44.306Z,7.80
2017-07-22T17:53:13.616Z,7.40
2017-07-22T17:55:42.799Z,6.70
2017-07-22T17:58:12.398Z,6.90
2017-07-22T18:00:41.540Z,6.20
2017-07-22T18:03:10.984Z,7.60
2017-07-22T18:05:40.064Z,6.70
2017-07-22T18:08:09.486Z,9.20
2017-07-22T18:10:38.225Z,9.70
2017-07-22T18:13:07.516Z,8.90
2017-07-22T18:15:36.864Z,8.70
2017-07-22T18:18:06.041Z,9.00
2017-07-22T18:20:35.710Z,7.20
2017-07-22T18:23:04.963Z,6.60
2017-07-22T18:25:36.698Z,6.20
2017-07-22T18:28:07.120Z,8.30
2017-07-22T18:30:36.145Z,8.00
2017-07-22T18:33:05.527Z,9.60
2017-07-22T18:35:34.777Z,10.20
2017-07-22T18:38:04.062Z,9.20
2017-07-22T18:40:33.389Z,9.30
2017-07-22T18:43:03.631Z,9.70
2017-07-22T18:45:32.993Z,9.30
2017-07-22T18:48:02.774Z,8.20
2017-07-22T18:50:33.632Z,7.30
2017-07-22T18:53:02.711Z,7.20
2017-07-22T18:55:31.845Z,7.80
2017-07-22T18:58:01.298Z,7.70
2017-07-22T19:00:30.738Z,9.50
2017-07-22T19:03:00.368Z,10.50
2017-07-22T19:05:30.042Z,9.80
2017-07-22T19:07:59.303Z,9.90
2017-07-22T19:10:28.510Z,9.60
2017-07-22T19:12:57.801Z,9.40
2017-07-22T19:15:27.123Z,10.30
2017-07-22T19:17:56.345Z,9.70
2017-07-22T19:20:25.682Z,10.00
2017-07-22T19:22:54.880Z,10.90
2017-07-22T19:25:24.000Z,12.00
2017-07-22T19:27:53.247Z,11.90
2017-07-22T19:30:23.540Z,12.40
2017-07-22T19:32:52.825Z,12.30
2017-07-22T19:35:22.603Z,12.10
2017-07-22T19:37:52.115Z,12.20
2017-07-22T19:40:21.779Z,11.80
2017-07-22T19:42:51.020Z,12.00
2017-07-22T19:45:20.990Z,13.80
2017-07-22T19:47:50.615Z,12.40
2017-07-22T19:50:19.853Z,12.90
2017-07-22T19:52:49.498Z,12.70
2017-07-22T19:55:18.980Z,12.80
2017-07-22T19:57:48.707Z,14.10
2017-07-22T20:00:18.075Z,13.50
2017-07-22T20:02:47.529Z,13.80
2017-07-22T20:05:16.837Z,15.70
2017-07-22T20:07:46.684Z,18.10
2017-07-22T20:10:17.016Z,20.70
2017-07-22T20:12:47.888Z,20.90
2017-07-22T20:15:18.301Z,22.90
2017-07-22T20:17:47.370Z,22.00
2017-07-22T20:20:16.381Z,21.80
2017-07-22T20:22:45.997Z,21.70
2017-07-22T20:25:15.531Z,23.40
2017-07-22T20:27:44.847Z,23.80
2017-07-22T20:30:13.999Z,24.10
2017-07-22T20:32:43.080Z,23.80
2017-07-22T20:35:12.395Z,23.90
2017-07-22T20:37:41.608Z,24.10
2017-07-22T20:40:11.193Z,23.50
2017-07-22T20:42:40.171Z,25.20
2017-07-22T20:45:09.585Z,25.30
2017-07-22T20:47:39.588Z,26.00
2017-07-22T20:50:09.307Z,25.60
2017-07-22T20:52:38.736Z,26.10
2017-07-22T20:55:08.262Z,25.60
2017-07-22T20:57:37.333Z,25.30
2017-07-22T21:00:06.497Z,25.90
2017-07-22T21:02:35.731Z,26.90
2017-07-22T21:05:05.132Z,27.60
2017-07-22T21:07:34.482Z,25.60
2017-07-22T21:10:05.224Z,24.50
2017-07-22T21:12:34.546Z,24.40
2017-07-22T21:15:05.117Z,25.40
2017-07-22T21:17:35.133Z,25.00
2017-07-22T21:20:05.738Z,25.20
2017-07-22T21:22:37.260Z,26.30
2017-07-22T21:25:08.030Z,25.60
2017-07-22T21:27:39.103Z,24.90
2017-07-22T21:30:10.111Z,25.40
2017-07-22T21:32:40.595Z,26.90
2017-07-22T21:35:10.464Z,26.20
2017-07-22T21:37:40.551Z,26.90
2017-07-22T21:40:10.603Z,25.80
2017-07-22T21:42:40.492Z,25.80
2017-07-22T21:45:10.559Z,26.10
2017-07-22T21:47:41.956Z,27.60
2017-07-22T21:50:12.096Z,26.00
2017-07-22T21:52:42.571Z,26.60
2017-07-22T21:55:14.651Z,25.90
2017-07-22T21:57:44.824Z,25.90
2017-07-22T22:00:15.088Z,26.60
2017-07-22T22:02:45.035Z,24.70
2017-07-22T22:05:14.824Z,25.70
2017-07-22T22:07:45.387Z,25.40
2017-07-22T22:10:15.737Z,25.40
2017-07-22T22:12:47.291Z,26.30
2017-07-22T22:15:18.615Z,25.90
2017-07-22T22:17:48.553Z,26.10
2017-07-22T22:20:18.300Z,25.20
2017-07-22T22:22:49.699Z,25.50
2017-07-22T22:25:19.336Z,25.50
2017-07-22T22:27:48.966Z,25.30
2017-07-22T22:30:19.564Z,26.60
2017-07-22T22:32:49.120Z,26.60
2017-07-22T22:35:18.589Z,26.10
2017-07-22T22:37:48.934Z,25.00
2017-07-22T22:40:20.865Z,25.20
2017-07-22T22:42:51.533Z,25.10
2017-07-22T22:45:21.168Z,25.60
2017-07-22T22:47:52.469Z,25.20
2017-07-22T22:50:22.696Z,25.20
2017-07-22T22:52:52.268Z,24.90
2017-07-22T22:55:22.917Z,25.50
2017-07-22T22:57:53.696Z,25.70
2017-07-22T23:00:23.567Z,24.90
2017-07-22T23:02:53.433Z,24.90
2017-07-22T23:05:26.897Z,25.10
2017-07-22T23:07:57.455Z,24.80
2017-07-22T23:10:27.130Z,24.70
2017-07-22T23:12:56.885Z,25.00
2017-07-22T23:15:26.007Z,25.40
2017-07-22T23:17:55.335Z,26.30
2017-07-22T23:20:24.554Z,26.10
2017-07-22T23:22:54.532Z,26.30
2017-07-22T23:25:24.128Z,26.20
2017-07-22T23:28:02.011Z,26.10
2017-07-22T23:30:31.364Z,25.80
2017-07-22T23:33:00.677Z,26.10
2017-07-22T23:35:30.026Z,26.30
2017-07-22T23:37:59.739Z,26.20
2017-07-22T23:40:29.417Z,26.30
2017-07-22T23:42:58.802Z,26.30
2017-07-22T23:45:27.803Z,26.10
2017-07-22T23:47:57.710Z,25.90
2017-07-22T23:50:27.155Z,25.00
2017-07-22T23:52:56.458Z,23.70
2017-07-22T23:55:25.826Z,23.00
2017-07-22T23:57:55.491Z,23.30
